createdAt,value
2018-11-22T00:00:37.974Z,16.03
2018-11-22T00:03:06.603Z,14.00
2018-11-22T00:05:35.136Z,15.57
2018-11-22T00:08:02.873Z,15.20
2018-11-22T00:10:31.949Z,17.47
2018-11-22T00:13:00.066Z,17.53
2018-11-22T00:15:28.043Z,17.67
2018-11-22T00:17:56.944Z,15.93
2018-11-22T00:20:25.435Z,17.50
2018-11-22T00:22:53.936Z,16.40
2018-11-22T00:25:22.235Z,19.27
2018-11-22T00:27:50.374Z,17.20
2018-11-22T00:30:37.495Z,19.27
2018-11-22T00:33:06.138Z,22.30
2018-11-22T00:35:34.164Z,16.80
2018-11-22T00:38:01.923Z,17.83
2018-11-22T00:40:29.617Z,18.43
2018-11-22T00:42:57.772Z,18.33
2018-11-22T00:45:27.265Z,18.00
2018-11-22T00:47:54.949Z,16.13
2018-11-22T00:50:23.018Z,17.40
2018-11-22T00:52:51.929Z,17.80
2018-11-22T00:55:21.834Z,18.27
2018-11-22T00:57:50.743Z,17.60
2018-11-22T01:00:20.133Z,16.53
2018-11-22T01:02:47.751Z,18.37
2018-11-22T01:05:17.228Z,17.20
2018-11-22T01:07:45.978Z,14.50
2018-11-22T01:10:14.695Z,17.57
2018-11-22T01:12:42.591Z,18.47
2018-11-22T01:15:10.236Z,19.67
2018-11-22T01:17:38.823Z,25.33
2018-11-22T01:20:09.291Z,18.40
2018-11-22T01:22:37.036Z,17.40
2018-11-22T01:25:06.605Z,15.93
2018-11-22T01:27:35.171Z,14.77
2018-11-22T01:30:03.716Z,18.70
2018-11-22T01:32:31.809Z,14.97
2018-11-22T01:34:59.979Z,15.33
2018-11-22T01:37:28.046Z,15.37
2018-11-22T01:39:56.543Z,15.37
2018-11-22T01:42:24.546Z,17.13
2018-11-22T01:44:53.120Z,13.97
2018-11-22T01:47:21.600Z,15.40
2018-11-22T01:49:49.811Z,15.13
2018-11-22T01:52:18.174Z,16.00
2018-11-22T01:54:46.664Z,15.00
2018-11-22T01:57:15.091Z,16.33
2018-11-22T01:59:43.646Z,22.33
2018-11-22T02:02:12.095Z,16.43
2018-11-22T02:04:40.690Z,15.90
2018-11-22T02:07:09.176Z,15.53
2018-11-22T02:09:37.650Z,15.83
2018-11-22T02:12:05.727Z,15.77
2018-11-22T02:14:33.146Z,14.13
2018-11-22T02:17:01.664Z,15.30
2018-11-22T02:19:29.869Z,14.53
2018-11-22T02:21:57.845Z,14.47
2018-11-22T02:24:25.521Z,15.67
2018-11-22T02:26:53.300Z,14.40
2018-11-22T02:29:21.393Z,14.40
2018-11-22T02:31:49.841Z,15.60
2018-11-22T02:34:17.930Z,15.37
2018-11-22T02:36:46.419Z,15.63
2018-11-22T02:39:14.500Z,15.57
2018-11-22T02:41:43.007Z,16.87
2018-11-22T02:44:11.054Z,16.07
2018-11-22T02:46:39.233Z,15.27
2018-11-22T02:49:07.670Z,17.10
2018-11-22T02:51:35.896Z,15.37
2018-11-22T02:54:03.980Z,15.93
2018-11-22T02:56:32.430Z,15.37
2018-11-22T02:59:00.956Z,16.87
2018-11-22T03:01:29.431Z,15.90
2018-11-22T03:03:57.614Z,16.40
2018-11-22T03:06:26.195Z,16.30
2018-11-22T03:08:54.389Z,16.87
2018-11-22T03:11:22.868Z,16.67
2018-11-22T03:13:51.063Z,16.50
2018-11-22T03:16:19.245Z,16.77
2018-11-22T03:18:47.410Z,16.40
2018-11-22T03:21:15.069Z,16.80
2018-11-22T03:23:43.266Z,18.30
2018-11-22T03:26:11.434Z,15.37
2018-11-22T03:28:39.201Z,16.83
2018-11-22T03:31:07.356Z,17.13
2018-11-22T03:33:35.927Z,16.93
2018-11-22T03:36:04.541Z,17.07
2018-11-22T03:38:33.056Z,16.60
2018-11-22T03:41:01.121Z,17.73
2018-11-22T03:43:28.940Z,16.77
2018-11-22T03:45:56.563Z,17.20
2018-11-22T03:48:25.174Z,17.97
2018-11-22T03:50:53.358Z,18.30
2018-11-22T03:53:20.729Z,17.70
2018-11-22T03:55:48.497Z,19.47
2018-11-22T03:58:15.824Z,16.97
2018-11-22T04:00:43.624Z,17.03
2018-11-22T04:03:11.781Z,18.13
2018-11-22T04:05:40.261Z,17.20
2018-11-22T04:08:08.770Z,18.17
2018-11-22T04:10:36.857Z,18.40
2018-11-22T04:13:04.196Z,17.67
2018-11-22T04:15:32.780Z,18.03
2018-11-22T04:18:00.461Z,18.00
2018-11-22T04:20:30.471Z,18.23
2018-11-22T04:22:58.955Z,18.27
2018-11-22T04:25:26.731Z,17.53
2018-11-22T04:27:55.214Z,18.23
2018-11-22T04:30:42.904Z,15.50
2018-11-22T04:33:10.305Z,18.77
2018-11-22T04:35:38.786Z,17.83
2018-11-22T04:38:07.007Z,17.73
2018-11-22T04:40:35.287Z,19.37
2018-11-22T04:43:03.563Z,18.97
2018-11-22T04:45:32.079Z,18.27
2018-11-22T04:48:03.472Z,19.07
2018-11-22T04:50:33.525Z,18.30
2018-11-22T04:53:01.721Z,18.40
2018-11-22T04:55:29.950Z,18.33
2018-11-22T04:57:58.093Z,19.53
2018-11-22T05:00:26.412Z,19.37
2018-11-22T05:02:54.599Z,17.93
2018-11-22T05:05:24.064Z,18.93
2018-11-22T05:07:52.272Z,18.53
2018-11-22T05:10:39.469Z,18.90
2018-11-22T05:13:07.142Z,19.47
2018-11-22T05:15:35.670Z,17.97
2018-11-22T05:18:03.437Z,20.23
2018-11-22T05:20:32.032Z,21.13
2018-11-22T05:23:00.537Z,19.40
2018-11-22T05:25:29.065Z,18.40
2018-11-22T05:27:57.309Z,17.70
2018-11-22T05:30:27.471Z,18.67
2018-11-22T05:32:55.278Z,21.67
2018-11-22T05:35:23.546Z,24.80
2018-11-22T05:37:52.202Z,23.30
2018-11-22T05:40:21.637Z,21.97
2018-11-22T05:42:49.830Z,21.33
2018-11-22T05:45:18.841Z,21.97
2018-11-22T05:47:46.862Z,26.33
2018-11-22T05:50:15.630Z,26.47
2018-11-22T05:52:43.678Z,20.47
2018-11-22T05:55:12.374Z,21.70
2018-11-22T05:57:40.862Z,21.53
2018-11-22T06:00:13.447Z,25.30
2018-11-22T06:02:41.610Z,23.47
2018-11-22T06:05:10.959Z,23.27
2018-11-22T06:07:38.992Z,22.30
2018-11-22T06:10:09.683Z,21.03
2018-11-22T06:12:37.981Z,19.93
2018-11-22T06:15:07.034Z,19.67
2018-11-22T06:17:35.228Z,19.60
2018-11-22T06:20:03.111Z,20.13
2018-11-22T06:22:32.025Z,20.10
2018-11-22T06:25:03.711Z,19.50
2018-11-22T06:27:27.997Z,20.30
2018-11-22T06:29:56.507Z,20.10
2018-11-22T06:32:24.590Z,18.40
2018-11-22T06:34:52.752Z,19.57
2018-11-22T06:37:21.370Z,19.77
2018-11-22T06:39:49.127Z,19.50
2018-11-22T06:42:17.703Z,19.87
2018-11-22T06:44:45.518Z,20.33
2018-11-22T06:47:14.162Z,19.63
2018-11-22T06:49:41.874Z,27.23
2018-11-22T06:52:10.125Z,26.97
2018-11-22T06:54:38.209Z,26.20
2018-11-22T06:57:06.267Z,22.63
2018-11-22T06:59:34.048Z,20.63
2018-11-22T07:02:02.542Z,21.37
2018-11-22T07:04:30.431Z,20.13
2018-11-22T07:06:59.091Z,21.17
2018-11-22T07:09:27.686Z,19.13
2018-11-22T07:11:55.873Z,20.13
2018-11-22T07:14:24.545Z,19.07
2018-11-22T07:16:53.010Z,18.27
2018-11-22T07:19:21.257Z,17.87
2018-11-22T07:21:49.697Z,19.33
2018-11-22T07:24:18.196Z,18.80
2018-11-22T07:26:46.263Z,18.63
2018-11-22T07:29:14.861Z,18.50
2018-11-22T07:31:43.341Z,19.80
2018-11-22T07:34:11.518Z,19.60
2018-11-22T07:36:38.902Z,20.50
2018-11-22T07:39:08.057Z,20.73
2018-11-22T07:41:36.272Z,19.20
2018-11-22T07:44:04.347Z,18.67
2018-11-22T07:46:32.497Z,19.10
2018-11-22T07:49:00.717Z,18.83
2018-11-22T07:51:28.984Z,20.13
2018-11-22T07:53:56.987Z,20.50
2018-11-22T07:56:25.245Z,20.47
2018-11-22T07:58:53.311Z,19.13
2018-11-22T08:01:21.384Z,21.07
2018-11-22T08:03:49.227Z,20.40
2018-11-22T08:06:17.755Z,19.63
2018-11-22T08:08:46.251Z,20.43
2018-11-22T08:11:14.849Z,19.07
2018-11-22T08:13:42.913Z,20.57
2018-11-22T08:16:11.428Z,20.43
2018-11-22T08:18:40.096Z,19.87
2018-11-22T08:21:08.663Z,20.43
2018-11-22T08:23:37.161Z,19.00
2018-11-22T08:26:05.232Z,21.70
2018-11-22T08:28:33.726Z,20.20
2018-11-22T08:31:01.474Z,21.20
2018-11-22T08:33:29.881Z,20.00
2018-11-22T08:35:57.246Z,20.13
2018-11-22T08:38:25.831Z,21.10
2018-11-22T08:40:53.906Z,20.27
2018-11-22T08:43:21.953Z,20.53
2018-11-22T08:45:49.748Z,19.83
2018-11-22T08:48:17.858Z,20.73
2018-11-22T08:50:46.427Z,20.17
2018-11-22T08:53:14.916Z,19.50
2018-11-22T08:55:43.397Z,18.87
2018-11-22T08:58:11.055Z,18.57
2018-11-22T09:00:39.249Z,20.67
2018-11-22T09:03:06.512Z,20.83
2018-11-22T09:05:36.118Z,19.23
2018-11-22T09:08:04.302Z,22.63
2018-11-22T09:10:32.793Z,23.63
2018-11-22T09:13:01.897Z,20.37
2018-11-22T09:15:31.527Z,20.87
2018-11-22T09:17:58.782Z,20.53
2018-11-22T09:20:28.371Z,20.67
2018-11-22T09:22:56.473Z,21.07
2018-11-22T09:25:23.997Z,19.73
2018-11-22T09:27:51.682Z,19.27
2018-11-22T09:30:39.226Z,18.33
2018-11-22T09:33:07.695Z,19.37
2018-11-22T09:35:36.028Z,19.50
2018-11-22T09:38:04.549Z,19.20
2018-11-22T09:40:34.322Z,19.07
2018-11-22T09:43:02.574Z,19.97
2018-11-22T09:45:31.535Z,21.87
2018-11-22T09:47:59.630Z,18.53
2018-11-22T09:50:28.216Z,20.03
2018-11-22T09:53:00.179Z,18.77
2018-11-22T09:55:28.575Z,20.10
2018-11-22T09:57:56.615Z,23.07
2018-11-22T10:00:25.235Z,19.17
2018-11-22T10:02:52.708Z,18.73
2018-11-22T10:05:24.581Z,19.37
2018-11-22T10:07:52.805Z,17.77
2018-11-22T10:10:22.294Z,17.87
2018-11-22T10:12:50.448Z,19.27
2018-11-22T10:15:19.633Z,18.77
2018-11-22T10:17:47.297Z,18.40
2018-11-22T10:20:17.901Z,17.87
2018-11-22T10:22:46.741Z,18.40
2018-11-22T10:25:15.117Z,18.53
2018-11-22T10:27:43.301Z,17.87
2018-11-22T10:30:30.505Z,18.33
2018-11-22T10:32:59.922Z,17.10
2018-11-22T10:35:47.066Z,18.23
2018-11-22T10:38:15.217Z,17.40
2018-11-22T10:40:43.382Z,18.23
2018-11-22T10:43:11.458Z,18.40
2018-11-22T10:45:39.655Z,17.73
2018-11-22T10:48:09.467Z,16.43
2018-11-22T10:50:38.094Z,17.57
2018-11-22T10:53:06.049Z,17.27
2018-11-22T10:55:35.729Z,17.77
2018-11-22T10:58:03.973Z,18.83
2018-11-22T11:00:51.653Z,18.93
2018-11-22T11:03:39.211Z,18.50
2018-11-22T11:06:26.121Z,17.43
2018-11-22T11:08:54.762Z,18.57
2018-11-22T11:11:22.537Z,17.03
2018-11-22T11:13:50.712Z,17.13
2018-11-22T11:16:18.882Z,18.03
2018-11-22T11:18:47.403Z,17.00
2018-11-22T11:21:15.306Z,17.87
2018-11-22T11:23:43.902Z,16.60
2018-11-22T11:26:11.919Z,17.27
2018-11-22T11:28:40.515Z,16.50
2018-11-22T11:31:08.344Z,16.23
2018-11-22T11:33:36.366Z,15.30
2018-11-22T11:36:04.420Z,16.13
2018-11-22T11:38:32.913Z,15.47
2018-11-22T11:41:00.720Z,15.90
2018-11-22T11:43:28.032Z,14.70
2018-11-22T11:45:56.538Z,14.57
2018-11-22T11:48:24.985Z,14.87
2018-11-22T11:50:53.528Z,14.33
2018-11-22T11:53:27.106Z,14.27
2018-11-22T11:55:49.664Z,14.13
2018-11-22T11:58:17.337Z,13.50
2018-11-22T12:00:46.036Z,14.00
2018-11-22T12:03:14.207Z,11.90
2018-11-22T12:05:42.390Z,12.80
2018-11-22T12:08:11.089Z,13.13
2018-11-22T12:10:39.073Z,11.87
2018-11-22T12:13:07.339Z,11.63
2018-11-22T12:15:34.998Z,12.03
2018-11-22T12:18:02.667Z,8.23
2018-11-22T12:20:31.122Z,3.70
2018-11-22T12:22:59.448Z,2.90
2018-11-22T12:25:28.223Z,1.67
2018-11-22T12:27:57.340Z,1.80
2018-11-22T12:30:26.536Z,1.60
2018-11-22T12:33:13.826Z,1.80
2018-11-22T12:36:01.234Z,1.57
2018-11-22T12:38:47.938Z,2.90
2018-11-22T12:41:16.054Z,2.80
2018-11-22T12:43:43.837Z,2.90
2018-11-22T12:46:12.308Z,6.37
2018-11-22T12:48:41.277Z,2.83
2018-11-22T12:51:09.467Z,2.10
2018-11-22T12:53:37.966Z,2.90
2018-11-22T12:56:05.757Z,2.40
2018-11-22T12:58:33.841Z,3.10
2018-11-22T13:01:02.209Z,4.03
2018-11-22T13:03:30.671Z,2.17
2018-11-22T13:05:58.872Z,1.40
2018-11-22T13:08:27.071Z,2.17
2018-11-22T13:10:55.292Z,1.87
2018-11-22T13:13:23.389Z,2.50
2018-11-22T13:15:51.495Z,13.73
2018-11-22T13:18:19.959Z,3.43
2018-11-22T13:20:47.750Z,3.90
2018-11-22T13:23:16.334Z,4.15
2018-11-22T13:25:44.848Z,6.80
2018-11-22T13:28:12.898Z,4.43
2018-11-22T13:30:40.570Z,7.93
2018-11-22T13:33:08.748Z,6.60
2018-11-22T13:35:37.250Z,5.57
2018-11-22T13:38:05.000Z,3.17
2018-11-22T13:40:33.078Z,2.30
2018-11-22T13:43:01.554Z,2.93
2018-11-22T13:45:30.011Z,3.17
2018-11-22T13:47:58.744Z,3.17
2018-11-22T13:50:28.125Z,3.47
2018-11-22T13:53:20.475Z,4.83
2018-11-22T13:55:43.252Z,4.67
2018-11-22T13:58:11.759Z,5.60
2018-11-22T14:00:39.896Z,5.80
2018-11-22T14:03:08.404Z,7.30
2018-11-22T14:05:36.971Z,5.13
2018-11-22T14:08:04.651Z,5.30
2018-11-22T14:10:32.748Z,5.07
2018-11-22T14:13:01.181Z,5.90
2018-11-22T14:15:32.738Z,9.93
2018-11-22T14:18:19.503Z,9.70
2018-11-22T14:20:47.563Z,7.30
2018-11-22T14:23:16.018Z,5.27
2018-11-22T14:25:49.003Z,5.13
2018-11-22T14:28:13.019Z,4.60
2018-11-22T14:30:40.414Z,6.57
2018-11-22T14:33:08.260Z,9.63
2018-11-22T14:35:35.595Z,5.90
2018-11-22T14:38:03.037Z,6.30
2018-11-22T14:40:32.441Z,5.47
2018-11-22T14:43:00.950Z,5.20
2018-11-22T14:45:29.134Z,5.20
2018-11-22T14:47:58.211Z,6.80
2018-11-22T14:50:31.151Z,6.53
2018-11-22T14:53:21.293Z,6.50
2018-11-22T14:55:49.235Z,4.90
2018-11-22T14:58:17.012Z,4.80
2018-11-22T15:00:44.922Z,5.20
2018-11-22T15:03:13.500Z,6.53
2018-11-22T15:05:41.976Z,6.53
2018-11-22T15:08:29.079Z,5.37
2018-11-22T15:10:57.214Z,5.00
2018-11-22T15:13:25.681Z,5.07
2018-11-22T15:15:54.173Z,4.67
2018-11-22T15:18:22.367Z,4.47
2018-11-22T15:20:50.034Z,4.50
2018-11-22T15:23:18.335Z,4.20
2018-11-22T15:25:46.485Z,4.17
2018-11-22T15:28:14.654Z,4.10
2018-11-22T15:30:42.429Z,4.37
2018-11-22T15:33:10.538Z,4.27
2018-11-22T15:35:38.671Z,4.20
2018-11-22T15:38:06.566Z,4.67
2018-11-22T15:40:34.752Z,4.63
2018-11-22T15:43:03.457Z,5.13
2018-11-22T15:45:35.229Z,5.03
2018-11-22T15:48:00.235Z,5.77
2018-11-22T15:50:28.872Z,6.53
2018-11-22T15:52:57.497Z,4.73
2018-11-22T15:55:26.245Z,4.90
2018-11-22T15:57:56.299Z,5.47
2018-11-22T16:00:28.574Z,5.23
2018-11-22T16:02:57.649Z,5.10
2018-11-22T16:05:26.443Z,5.90
2018-11-22T16:07:54.542Z,5.73
2018-11-22T16:10:26.907Z,5.60
2018-11-22T16:13:12.755Z,5.47
2018-11-22T16:15:59.915Z,5.33
2018-11-22T16:18:27.434Z,5.47
2018-11-22T16:20:55.566Z,6.07
2018-11-22T16:23:23.614Z,5.90
2018-11-22T16:25:51.796Z,5.40
2018-11-22T16:28:19.549Z,5.43
2018-11-22T16:30:47.680Z,5.27
2018-11-22T16:33:15.728Z,5.77
2018-11-22T16:35:44.275Z,5.90
2018-11-22T16:38:12.430Z,5.50
2018-11-22T16:40:40.983Z,5.90
2018-11-22T16:43:08.655Z,5.40
2018-11-22T16:45:37.448Z,6.10
2018-11-22T16:48:07.636Z,6.00
2018-11-22T16:50:37.249Z,5.10
2018-11-22T16:53:05.996Z,6.13
2018-11-22T16:55:34.051Z,6.20
2018-11-22T16:58:02.673Z,7.40
2018-11-22T17:00:34.199Z,9.00
2018-11-22T17:03:03.607Z,8.23
2018-11-22T17:05:32.405Z,21.83
2018-11-22T17:08:01.211Z,25.57
2018-11-22T17:10:30.525Z,13.30
2018-11-22T17:12:59.300Z,11.40
2018-11-22T17:15:28.993Z,11.73
2018-11-22T17:17:57.889Z,12.23
2018-11-22T17:20:27.150Z,15.30
2018-11-22T17:22:55.295Z,14.60
2018-11-22T17:25:25.108Z,15.60
2018-11-22T17:27:55.225Z,13.53
2018-11-22T17:30:25.560Z,14.23
2018-11-22T17:32:54.115Z,15.03
2018-11-22T17:35:23.358Z,14.90
2018-11-22T17:37:52.794Z,16.97
2018-11-22T17:40:39.773Z,15.87
2018-11-22T17:43:08.028Z,19.67
2018-11-22T17:45:37.568Z,17.43
2018-11-22T17:48:06.043Z,19.37
2018-11-22T17:50:35.272Z,17.60
2018-11-22T17:53:03.890Z,19.07
2018-11-22T17:55:32.414Z,16.33
2018-11-22T17:58:00.273Z,14.07
2018-11-22T18:00:32.710Z,15.60
2018-11-22T18:03:02.275Z,12.77
2018-11-22T18:05:30.480Z,12.47
2018-11-22T18:07:58.618Z,12.47
2018-11-22T18:10:28.465Z,12.50
2018-11-22T18:12:57.462Z,13.87
2018-11-22T18:15:26.069Z,12.60
2018-11-22T18:17:54.130Z,11.77
2018-11-22T18:20:26.518Z,10.80
2018-11-22T18:22:56.129Z,10.73
2018-11-22T18:25:25.718Z,11.10
2018-11-22T18:27:54.041Z,17.47
2018-11-22T18:30:23.106Z,28.27
2018-11-22T18:33:10.411Z,20.23
2018-11-22T18:35:38.983Z,22.50
2018-11-22T18:38:07.309Z,23.23
2018-11-22T18:40:37.430Z,26.53
2018-11-22T18:43:05.821Z,28.23
2018-11-22T18:45:35.517Z,11.70
2018-11-22T18:48:04.469Z,15.20
2018-11-22T18:50:59.448Z,12.27
2018-11-22T18:53:28.020Z,11.37
2018-11-22T18:55:56.076Z,12.57
2018-11-22T18:58:24.069Z,12.60
2018-11-22T19:00:51.435Z,12.03
2018-11-22T19:03:19.904Z,14.50
2018-11-22T19:05:48.279Z,12.67
2018-11-22T19:08:15.945Z,13.30
2018-11-22T19:10:44.432Z,13.30
2018-11-22T19:13:13.030Z,12.40
2018-11-22T19:15:42.960Z,12.27
2018-11-22T19:18:12.088Z,12.13
2018-11-22T19:20:41.059Z,12.00
2018-11-22T19:23:09.336Z,13.90
2018-11-22T19:25:37.093Z,12.83
2018-11-22T19:28:05.459Z,12.50
2018-11-22T19:30:52.996Z,14.87
2018-11-22T19:33:21.108Z,13.20
2018-11-22T19:35:56.631Z,17.20
2018-11-22T19:38:25.215Z,13.87
2018-11-22T19:40:53.809Z,13.57
2018-11-22T19:43:22.265Z,13.63
2018-11-22T19:45:49.851Z,15.57
2018-11-22T19:48:18.026Z,13.97
2018-11-22T19:50:46.523Z,11.77
2018-11-22T19:53:15.525Z,11.50
2018-11-22T19:55:43.395Z,10.90
2018-11-22T19:58:12.529Z,11.40
2018-11-22T20:00:40.780Z,10.17
2018-11-22T20:03:09.864Z,8.93
2018-11-22T20:05:39.597Z,10.30
2018-11-22T20:08:08.917Z,13.00
2018-11-22T20:10:38.475Z,10.50
2018-11-22T20:13:06.579Z,8.70
2018-11-22T20:15:35.254Z,9.33
2018-11-22T20:18:04.264Z,9.70
2018-11-22T20:20:32.778Z,9.93
2018-11-22T20:23:01.065Z,9.50
2018-11-22T20:25:29.040Z,7.93
2018-11-22T20:27:57.228Z,9.00
2018-11-22T20:30:29.711Z,8.87
2018-11-22T20:32:58.299Z,8.63
2018-11-22T20:35:26.343Z,9.20
2018-11-22T20:37:54.733Z,8.23
2018-11-22T20:40:23.943Z,9.13
2018-11-22T20:42:52.013Z,8.10
2018-11-22T20:45:21.001Z,7.43
2018-11-22T20:47:50.604Z,7.77
2018-11-22T20:50:20.007Z,7.43
2018-11-22T20:52:48.210Z,8.30
2018-11-22T20:55:18.416Z,9.73
2018-11-22T20:57:47.766Z,9.77
2018-11-22T21:00:17.226Z,11.10
2018-11-22T21:02:45.260Z,9.47
2018-11-22T21:05:13.708Z,9.43
2018-11-22T21:07:42.139Z,9.13
2018-11-22T21:10:30.059Z,9.77
2018-11-22T21:12:58.228Z,9.40
2018-11-22T21:15:45.581Z,7.50
2018-11-22T21:18:14.233Z,9.57
2018-11-22T21:20:42.396Z,7.67
2018-11-22T21:23:10.190Z,7.27
2018-11-22T21:25:37.832Z,7.70
2018-11-22T21:28:06.101Z,7.40
2018-11-22T21:30:35.835Z,7.03
2018-11-22T21:33:03.604Z,7.90
2018-11-22T21:35:32.191Z,7.10
2018-11-22T21:38:01.412Z,7.77
2018-11-22T21:40:30.203Z,9.23
2018-11-22T21:42:58.260Z,11.17
2018-11-22T21:45:27.101Z,11.00
2018-11-22T21:47:54.827Z,12.20
2018-11-22T21:50:24.129Z,11.00
2018-11-22T21:52:52.332Z,10.53
2018-11-22T21:55:22.080Z,9.87
2018-11-22T21:57:50.209Z,11.00
2018-11-22T22:00:30.364Z,9.40
2018-11-22T22:03:00.179Z,10.50
2018-11-22T22:05:28.345Z,10.07
2018-11-22T22:07:56.549Z,9.53
2018-11-22T22:10:24.650Z,9.10
2018-11-22T22:12:52.683Z,10.33
2018-11-22T22:15:22.284Z,9.00
2018-11-22T22:17:50.302Z,9.70
2018-11-22T22:20:38.686Z,9.63
2018-11-22T22:23:13.279Z,9.97
2018-11-22T22:25:35.410Z,9.87
2018-11-22T22:28:03.765Z,10.00
2018-11-22T22:30:32.487Z,11.53
2018-11-22T22:33:02.234Z,10.47
2018-11-22T22:35:29.541Z,11.30
2018-11-22T22:37:57.299Z,11.17
2018-11-22T22:40:26.031Z,10.57
2018-11-22T22:42:55.508Z,10.93
2018-11-22T22:45:24.671Z,10.43
2018-11-22T22:47:53.431Z,9.90
2018-11-22T22:50:22.969Z,10.67
2018-11-22T22:52:52.378Z,10.93
2018-11-22T22:55:20.115Z,11.50
2018-11-22T22:57:47.437Z,12.13
2018-11-22T23:00:53.682Z,12.93
2018-11-22T23:03:22.200Z,12.93
2018-11-22T23:05:49.560Z,11.07
2018-11-22T23:08:17.205Z,10.27
2018-11-22T23:10:45.314Z,9.03
2018-11-22T23:13:13.795Z,9.03
2018-11-22T23:15:41.973Z,8.83
2018-11-22T23:18:10.051Z,9.33
2018-11-22T23:20:38.574Z,11.83
2018-11-22T23:23:06.791Z,10.67
2018-11-22T23:25:35.282Z,16.00
2018-11-22T23:28:03.411Z,10.27
2018-11-22T23:30:32.578Z,12.53
2018-11-22T23:33:01.698Z,17.27
2018-11-22T23:35:29.745Z,11.60
2018-11-22T23:37:58.317Z,16.27
2018-11-22T23:40:27.296Z,26.87
2018-11-22T23:42:55.409Z,52.70
2018-11-22T23:45:28.292Z,40.73
2018-11-22T23:47:57.148Z,23.37
2018-11-22T23:50:25.925Z,8.33
2018-11-22T23:52:55.479Z,7.87
2018-11-22T23:55:23.191Z,10.60
2018-11-22T23:57:51.037Z,16.52
